Laramie, Wyoming
Current Conditions -  °F | °C
As of 10:53 PM on Monday 20 Oct 2014 (Local Time) from KLAR Reporting Station
Clear Clear  
Wind Chill: 34°   Ceiling: Unl
Heat Index: 39°   Visibility: 10mi
Dew Point: 33°   Wind: 7mph
Humidity: 79%   Direction: 160°SSE
Pressure: 30.15"   Gusts: NA
Location:  41.31°N, 105.59°W
Report Text: KLAR 210453Z AUTO 16006KT 10SM CLR 04/01 A3015 RMK AO2 SLP139 T00390006
Loading
Personal Weather Stations






























Interactive Weather Map New forecast layout! Learn more

10-Day Weather Forecast

Advertisements
Track Severe Weather on mobile